createdAt,value
2018-03-20T00:02:04.434Z,-5.40
2018-03-20T00:04:32.811Z,-5.40
2018-03-20T00:07:01.205Z,-5.40
2018-03-20T00:09:28.836Z,-5.40
2018-03-20T00:11:56.430Z,-5.40
2018-03-20T00:14:24.061Z,-5.50
2018-03-20T00:16:53.777Z,-5.50
2018-03-20T00:19:23.240Z,-5.50
2018-03-20T00:21:50.831Z,-5.50
2018-03-20T00:24:18.464Z,-5.60
2018-03-20T00:26:46.052Z,-5.60
2018-03-20T00:29:13.636Z,-5.60
2018-03-20T00:31:41.240Z,-5.70
2018-03-20T00:34:08.848Z,-5.60
2018-03-20T00:36:37.220Z,-5.60
2018-03-20T00:39:05.584Z,-5.60
2018-03-20T00:41:33.193Z,-5.70
2018-03-20T00:44:00.796Z,-5.60
2018-03-20T00:46:28.412Z,-5.60
2018-03-20T00:48:56.022Z,-5.60
2018-03-20T00:51:24.944Z,-5.60
2018-03-20T00:53:54.457Z,-5.70
2018-03-20T00:56:23.175Z,-5.70
2018-03-20T00:58:50.769Z,-5.70
2018-03-20T01:01:18.348Z,-5.70
2018-03-20T01:03:46.719Z,-5.80
2018-03-20T01:06:15.072Z,-5.80
2018-03-20T01:08:42.748Z,-5.90
2018-03-20T01:11:11.100Z,-5.90
2018-03-20T01:13:38.724Z,-5.90
2018-03-20T01:16:06.325Z,-5.90
2018-03-20T01:18:33.953Z,-5.90
2018-03-20T01:21:01.537Z,-6.00
2018-03-20T01:23:29.168Z,-6.00
2018-03-20T01:25:56.783Z,-6.00
2018-03-20T01:28:25.162Z,-6.00
2018-03-20T01:30:52.769Z,-6.00
2018-03-20T01:33:20.385Z,-6.00
2018-03-20T01:35:48.758Z,-6.10
2018-03-20T01:38:16.365Z,-6.20
2018-03-20T01:40:43.977Z,-6.10
2018-03-20T01:43:11.560Z,-6.20
2018-03-20T01:45:39.172Z,-6.30
2018-03-20T01:48:06.753Z,-6.30
2018-03-20T01:50:34.384Z,-6.40
2018-03-20T01:53:14.529Z,-6.40
2018-03-20T01:55:42.137Z,-6.40
2018-03-20T01:58:10.513Z,-6.40
2018-03-20T02:00:38.143Z,-6.40
2018-03-20T02:03:05.753Z,-6.30
2018-03-20T02:05:33.353Z,-6.30
2018-03-20T02:08:00.972Z,-6.30
2018-03-20T02:10:29.335Z,-6.30
2018-03-20T02:12:57.714Z,-6.30
2018-03-20T02:15:26.062Z,-6.30
2018-03-20T02:17:54.388Z,-6.30
2018-03-20T02:20:22.975Z,-6.30
2018-03-20T02:22:50.609Z,-6.30
2018-03-20T02:25:18.971Z,-6.40
2018-03-20T02:27:46.600Z,-6.40
2018-03-20T02:30:14.226Z,-6.40
2018-03-20T02:32:41.837Z,-6.40
2018-03-20T02:35:09.421Z,-6.40
2018-03-20T02:37:37.044Z,-6.40
2018-03-20T02:40:04.630Z,-6.50
2018-03-20T02:42:32.240Z,-6.50
2018-03-20T02:44:59.853Z,-6.50
2018-03-20T02:47:27.444Z,-6.50
2018-03-20T02:49:55.817Z,-6.60
2018-03-20T02:52:24.189Z,-6.60
2018-03-20T02:54:53.594Z,-6.60
2018-03-20T02:57:22.605Z,-6.60
2018-03-20T02:59:50.218Z,-6.70
2018-03-20T03:02:17.794Z,-6.70
2018-03-20T03:04:46.186Z,-6.80
2018-03-20T03:07:14.550Z,-6.80
2018-03-20T03:09:42.176Z,-6.80
2018-03-20T03:12:09.781Z,-6.80
2018-03-20T03:14:38.162Z,-6.90
2018-03-20T03:17:06.509Z,-6.90
2018-03-20T03:19:34.108Z,-7.00
2018-03-20T03:22:02.488Z,-7.00
2018-03-20T03:24:30.116Z,-7.00
2018-03-20T03:26:57.720Z,-7.00
2018-03-20T03:29:25.346Z,-7.00
2018-03-20T03:31:54.822Z,-7.00
2018-03-20T03:34:23.645Z,-7.00
2018-03-20T03:36:52.997Z,-7.00
2018-03-20T03:39:20.600Z,-7.00
2018-03-20T03:41:48.957Z,-7.00
2018-03-20T03:44:16.578Z,-7.00
2018-03-20T03:46:44.165Z,-7.00
2018-03-20T03:49:11.740Z,-7.00
2018-03-20T03:51:39.367Z,-7.10
2018-03-20T03:54:06.968Z,-7.10
2018-03-20T03:56:34.577Z,-7.10
2018-03-20T03:59:02.171Z,-7.10
2018-03-20T04:01:29.769Z,-7.10
2018-03-20T04:03:58.118Z,-7.20
2018-03-20T04:06:25.728Z,-7.20
2018-03-20T04:08:53.889Z,-7.20
2018-03-20T04:11:22.719Z,-7.20
2018-03-20T04:13:50.316Z,-7.20
2018-03-20T04:16:18.729Z,-7.30
2018-03-20T04:18:46.327Z,-7.30
2018-03-20T04:21:13.924Z,-7.20
2018-03-20T04:23:42.300Z,-7.30
2018-03-20T04:26:10.667Z,-7.30
2018-03-20T04:28:38.278Z,-7.30
2018-03-20T04:31:05.887Z,-7.30
2018-03-20T04:33:34.264Z,-7.30
2018-03-20T04:36:01.875Z,-7.40
2018-03-20T04:38:29.490Z,-7.30
2018-03-20T04:40:57.870Z,-7.30
2018-03-20T04:43:26.245Z,-7.30
2018-03-20T04:45:55.100Z,-7.30
2018-03-20T04:48:23.609Z,-7.30
2018-03-20T04:50:51.207Z,-7.30
2018-03-20T04:53:18.798Z,-7.30
2018-03-20T04:55:46.402Z,-7.30
2018-03-20T04:58:14.756Z,-7.30
2018-03-20T05:00:42.387Z,-7.40
2018-03-20T05:03:09.972Z,-7.30
2018-03-20T05:05:37.605Z,-7.30
2018-03-20T05:08:05.196Z,-7.30
2018-03-20T05:10:32.802Z,-7.30
2018-03-20T05:13:00.407Z,-7.30
2018-03-20T05:15:28.015Z,-7.20
2018-03-20T05:17:55.613Z,-7.20
2018-03-20T05:20:30.135Z,-7.10
2018-03-20T05:22:59.333Z,-7.00
2018-03-20T05:25:26.930Z,-6.80
2018-03-20T05:27:54.552Z,-6.70
2018-03-20T05:30:23.243Z,-6.60
2018-03-20T05:32:50.845Z,-6.50
2018-03-20T05:35:19.195Z,-6.30
2018-03-20T05:37:46.804Z,-6.40
2018-03-20T05:40:14.399Z,-6.20
2018-03-20T05:42:42.001Z,-6.20
2018-03-20T05:45:10.352Z,-6.10
2018-03-20T05:47:43.608Z,-6.10
2018-03-20T05:50:16.900Z,-6.00
2018-03-20T05:52:44.531Z,-5.90
2018-03-20T05:55:12.909Z,-5.80
2018-03-20T05:57:41.280Z,-5.70
2018-03-20T06:00:09.661Z,-5.60
2018-03-20T06:02:38.079Z,-5.50
2018-03-20T06:05:05.668Z,-5.60
2018-03-20T06:07:33.264Z,-5.50
2018-03-20T06:10:01.654Z,-5.30
2018-03-20T06:12:29.241Z,-5.30
2018-03-20T06:14:56.861Z,-5.20
2018-03-20T06:17:25.214Z,-5.10
2018-03-20T06:19:52.855Z,-5.10
2018-03-20T06:22:20.416Z,-5.00
2018-03-20T06:24:48.029Z,-4.90
2018-03-20T06:27:15.618Z,-4.80
2018-03-20T06:29:43.238Z,-4.70
2018-03-20T06:32:10.849Z,-4.60
2018-03-20T06:34:38.495Z,-4.50
2018-03-20T06:37:06.108Z,-4.50
2018-03-20T06:39:34.473Z,-4.20
2018-03-20T06:42:02.101Z,-4.20
2018-03-20T06:44:29.679Z,-4.00
2018-03-20T06:46:57.306Z,-3.80
2018-03-20T06:49:24.891Z,-3.70
2018-03-20T06:51:54.128Z,-3.60
2018-03-20T06:54:23.794Z,-3.50
2018-03-20T06:56:51.393Z,-3.50
2018-03-20T06:59:19.753Z,-3.30
2018-03-20T07:01:47.391Z,-3.30
2018-03-20T07:04:15.013Z,-3.20
2018-03-20T07:06:42.606Z,-3.20
2018-03-20T07:09:10.204Z,-3.20
2018-03-20T07:11:37.807Z,-3.20
2018-03-20T07:14:05.424Z,-3.30
2018-03-20T07:16:33.020Z,-3.30
2018-03-20T07:19:00.628Z,-3.20
2018-03-20T07:21:28.211Z,-3.20
2018-03-20T07:23:56.595Z,-3.10
2018-03-20T07:26:24.205Z,-3.10
2018-03-20T07:28:52.278Z,-3.20
2018-03-20T07:31:19.881Z,-3.00
2018-03-20T07:33:48.281Z,-2.90
2018-03-20T07:36:15.867Z,-2.90
2018-03-20T07:38:43.463Z,-2.80
2018-03-20T07:41:11.079Z,-2.70
2018-03-20T07:43:38.684Z,-2.80
2018-03-20T07:46:06.319Z,-2.80
2018-03-20T07:48:33.923Z,-2.70
2018-03-20T07:51:02.305Z,-2.60
2018-03-20T07:53:30.656Z,-2.50
2018-03-20T07:55:58.253Z,-2.50
2018-03-20T07:58:25.857Z,-2.50
2018-03-20T08:00:54.482Z,-2.30
2018-03-20T08:03:22.872Z,-2.30
2018-03-20T08:05:50.575Z,-2.30
2018-03-20T08:08:18.155Z,-2.20
2018-03-20T08:10:45.751Z,-2.10
2018-03-20T08:13:14.150Z,-2.20
2018-03-20T08:15:41.753Z,-2.20
2018-03-20T08:18:09.429Z,-2.10
2018-03-20T08:20:37.035Z,-2.00
2018-03-20T08:23:05.021Z,-1.90
2018-03-20T08:25:33.737Z,-1.90
2018-03-20T08:28:01.382Z,-2.00
2018-03-20T08:30:28.988Z,-1.90
2018-03-20T08:32:56.597Z,-1.80
2018-03-20T08:35:24.177Z,-1.70
2018-03-20T08:37:52.319Z,-1.90
2018-03-20T08:40:19.920Z,-1.80
2018-03-20T08:42:47.513Z,-1.90
2018-03-20T08:45:15.149Z,-1.90
2018-03-20T08:47:42.784Z,-1.70
2018-03-20T08:50:10.415Z,-1.70
2018-03-20T08:52:38.015Z,-1.80
2018-03-20T08:55:06.428Z,-1.70
2018-03-20T08:57:34.013Z,-1.70
2018-03-20T09:00:01.638Z,-1.50
2018-03-20T09:02:29.993Z,-1.40
2018-03-20T09:04:57.622Z,-1.50
2018-03-20T09:07:25.255Z,-1.40
2018-03-20T09:09:54.633Z,-1.20
2018-03-20T09:12:24.559Z,-1.20
2018-03-20T09:14:53.074Z,-1.20
2018-03-20T09:17:20.700Z,-1.20
2018-03-20T09:19:48.295Z,-1.40
2018-03-20T09:22:15.919Z,-1.30
2018-03-20T09:24:44.281Z,-1.00
2018-03-20T09:27:12.661Z,-0.90
2018-03-20T09:29:41.014Z,-1.00
2018-03-20T09:32:08.658Z,-1.00
2018-03-20T09:34:36.269Z,-1.00
2018-03-20T09:37:04.649Z,-1.10
2018-03-20T09:39:33.044Z,-1.20
2018-03-20T09:42:00.630Z,-1.20
2018-03-20T09:44:28.236Z,-1.10
2018-03-20T09:46:56.596Z,-1.10
2018-03-20T09:49:24.232Z,-1.10
2018-03-20T09:51:52.839Z,-0.70
2018-03-20T09:54:20.460Z,-0.60
2018-03-20T09:56:48.624Z,-0.40
2018-03-20T09:59:16.265Z,-0.40
2018-03-20T10:01:43.853Z,-0.20
2018-03-20T10:04:11.433Z,0.40
2018-03-20T10:06:39.037Z,0.70
2018-03-20T10:09:07.408Z,0.60
2018-03-20T10:11:35.804Z,0.10
2018-03-20T10:14:03.495Z,0.10
2018-03-20T10:16:31.116Z,0.20
2018-03-20T10:18:59.488Z,0.30
2018-03-20T10:21:27.871Z,0.60
2018-03-20T10:23:56.237Z,0.60
2018-03-20T10:26:23.836Z,0.60
2018-03-20T10:28:51.410Z,0.20
2018-03-20T10:31:19.066Z,0.60
2018-03-20T10:33:46.664Z,0.70
2018-03-20T10:36:14.268Z,0.80
2018-03-20T10:38:41.864Z,0.90
2018-03-20T10:41:09.455Z,1.20
2018-03-20T10:43:37.852Z,1.00
2018-03-20T10:46:06.222Z,1.30
2018-03-20T10:48:34.592Z,1.40
2018-03-20T10:51:03.017Z,1.80
2018-03-20T10:53:30.635Z,1.80
2018-03-20T10:55:58.989Z,1.30
2018-03-20T10:58:27.984Z,1.20
2018-03-20T11:01:01.205Z,1.00
2018-03-20T11:03:29.581Z,1.50
2018-03-20T11:05:57.929Z,1.60
2018-03-20T11:08:26.363Z,1.60
2018-03-20T11:10:53.968Z,2.10
2018-03-20T11:13:21.631Z,2.90
2018-03-20T11:15:49.213Z,3.30
2018-03-20T11:18:17.560Z,3.10
2018-03-20T11:20:45.189Z,3.10
2018-03-20T11:23:12.801Z,2.90
2018-03-20T11:25:40.429Z,3.10
2018-03-20T11:28:08.015Z,3.50
2018-03-20T11:30:35.656Z,3.60
2018-03-20T11:33:03.277Z,3.40
2018-03-20T11:35:30.887Z,3.60
2018-03-20T11:37:58.470Z,3.20
2018-03-20T11:40:26.860Z,2.90
2018-03-20T11:42:55.238Z,2.70
2018-03-20T11:45:23.609Z,2.40
2018-03-20T11:47:52.004Z,2.50
2018-03-20T11:50:19.597Z,2.50
2018-03-20T11:52:47.222Z,2.30
2018-03-20T11:55:14.821Z,2.10
2018-03-20T11:57:42.434Z,1.90
2018-03-20T12:00:10.784Z,1.40
2018-03-20T12:02:38.399Z,1.40
2018-03-20T12:05:07.020Z,1.50
2018-03-20T12:07:34.628Z,1.50
2018-03-20T12:10:02.266Z,1.30
2018-03-20T12:12:30.692Z,1.30
2018-03-20T12:14:58.364Z,1.30
2018-03-20T12:17:25.965Z,1.30
2018-03-20T12:19:54.361Z,1.50
2018-03-20T12:22:22.033Z,1.50
2018-03-20T12:24:49.666Z,1.10
2018-03-20T12:27:18.044Z,1.10
2018-03-20T12:29:46.430Z,1.10
2018-03-20T12:32:14.799Z,0.90
2018-03-20T12:34:43.202Z,1.00
2018-03-20T12:37:10.792Z,1.00
2018-03-20T12:39:38.441Z,0.90
2018-03-20T12:42:06.029Z,0.90
2018-03-20T12:44:33.604Z,1.00
2018-03-20T12:47:01.225Z,1.30
2018-03-20T12:49:28.833Z,1.70
2018-03-20T12:51:57.239Z,1.60
2018-03-20T12:54:24.830Z,1.60
2018-03-20T12:56:52.453Z,1.80
2018-03-20T12:59:20.033Z,1.40
2018-03-20T13:01:47.713Z,1.40
2018-03-20T13:04:15.311Z,1.30
2018-03-20T13:06:43.730Z,1.50
2018-03-20T13:09:11.322Z,1.40
2018-03-20T13:11:38.971Z,1.50
2018-03-20T13:14:09.615Z,1.60
2018-03-20T13:16:37.217Z,1.60
2018-03-20T13:19:05.623Z,1.50
2018-03-20T13:21:33.221Z,1.50
2018-03-20T13:24:00.836Z,1.60
2018-03-20T13:26:29.766Z,1.70
2018-03-20T13:28:57.389Z,1.80
2018-03-20T13:31:24.986Z,2.00
2018-03-20T13:33:52.617Z,1.70
2018-03-20T13:36:20.214Z,1.80
2018-03-20T13:38:47.830Z,2.00
2018-03-20T13:41:15.438Z,2.00
2018-03-20T13:43:43.082Z,2.10
2018-03-20T13:46:10.682Z,2.10
2018-03-20T13:48:39.097Z,2.10
2018-03-20T13:51:06.688Z,2.10
2018-03-20T13:53:34.273Z,2.30
2018-03-20T13:56:02.766Z,2.30
2018-03-20T13:58:31.145Z,2.20
2018-03-20T14:01:00.957Z,2.30
2018-03-20T14:03:28.589Z,2.30
2018-03-20T14:05:56.214Z,2.40
2018-03-20T14:08:23.856Z,2.60
2018-03-20T14:10:51.487Z,2.50
2018-03-20T14:13:19.854Z,2.50
2018-03-20T14:15:47.461Z,2.40
2018-03-20T14:18:15.042Z,2.50
2018-03-20T14:20:42.702Z,2.50
2018-03-20T14:23:10.308Z,2.30
2018-03-20T14:25:38.680Z,2.30
2018-03-20T14:28:07.073Z,2.30
2018-03-20T14:30:35.432Z,2.30
2018-03-20T14:33:03.167Z,2.30
2018-03-20T14:35:30.782Z,2.30
2018-03-20T14:37:58.406Z,2.30
2018-03-20T14:40:25.989Z,2.30
2018-03-20T14:42:54.378Z,2.10
2018-03-20T14:45:22.882Z,2.10
2018-03-20T14:47:50.513Z,2.20
2018-03-20T14:50:18.863Z,2.20
2018-03-20T14:52:46.480Z,2.20
2018-03-20T14:55:14.064Z,2.20
2018-03-20T14:57:41.708Z,2.20
2018-03-20T15:00:09.297Z,2.20
2018-03-20T15:02:36.876Z,2.20
2018-03-20T15:05:05.282Z,2.20
2018-03-20T15:07:32.880Z,2.20
2018-03-20T15:10:00.481Z,2.20
2018-03-20T15:12:28.097Z,2.20
2018-03-20T15:14:55.733Z,2.30
2018-03-20T15:17:23.340Z,2.30
2018-03-20T15:19:50.967Z,2.30
2018-03-20T15:22:18.564Z,2.20
2018-03-20T15:27:19.076Z,2.20
2018-03-20T15:29:46.661Z,2.20
2018-03-20T15:32:14.294Z,2.20
2018-03-20T15:34:41.893Z,2.20
2018-03-20T15:37:09.517Z,2.30
2018-03-20T15:39:37.125Z,2.30
2018-03-20T15:42:05.487Z,2.30
2018-03-20T15:44:33.067Z,2.30
2018-03-20T15:47:02.793Z,2.20
2018-03-20T15:49:30.379Z,2.10
2018-03-20T15:51:58.013Z,2.20
2018-03-20T15:54:25.598Z,2.30
2018-03-20T15:56:53.954Z,2.40
2018-03-20T15:59:21.561Z,2.40
2018-03-20T16:01:49.168Z,2.50
2018-03-20T16:04:17.025Z,2.50
2018-03-20T16:06:45.389Z,2.40
2018-03-20T16:09:13.769Z,2.40
2018-03-20T16:11:42.116Z,2.50
2018-03-20T16:14:09.726Z,2.50
2018-03-20T16:16:37.312Z,2.50
2018-03-20T16:19:04.949Z,2.80
2018-03-20T16:21:32.553Z,2.90
2018-03-20T16:24:00.184Z,2.80
2018-03-20T16:26:27.764Z,2.60
2018-03-20T16:28:55.368Z,2.40
2018-03-20T16:31:23.762Z,2.40
2018-03-20T16:33:51.354Z,2.40
2018-03-20T16:36:19.151Z,2.30
2018-03-20T16:38:46.729Z,2.30
2018-03-20T16:41:15.109Z,2.30
2018-03-20T16:43:43.463Z,2.30
2018-03-20T16:46:11.066Z,2.30
2018-03-20T16:48:38.676Z,2.20
2018-03-20T16:51:06.314Z,2.10
2018-03-20T16:53:33.968Z,2.10
2018-03-20T16:56:01.632Z,2.00
2018-03-20T16:58:29.249Z,1.90
2018-03-20T17:00:57.754Z,1.80
2018-03-20T17:03:26.031Z,1.70
2018-03-20T17:05:53.708Z,1.70
2018-03-20T17:08:21.369Z,1.60
2018-03-20T17:10:49.112Z,1.50
2018-03-20T17:13:16.795Z,1.40
2018-03-20T17:15:44.455Z,1.30
2018-03-20T17:18:12.072Z,1.30
2018-03-20T17:20:39.759Z,1.30
2018-03-20T17:23:07.439Z,1.20
2018-03-20T17:25:35.101Z,1.20
2018-03-20T17:28:02.822Z,1.10
2018-03-20T17:30:31.224Z,1.00
2018-03-20T17:32:58.903Z,1.00
2018-03-20T17:35:32.128Z,1.00
2018-03-20T17:37:59.815Z,1.00
2018-03-20T17:40:28.322Z,0.90
2018-03-20T17:42:55.999Z,0.90
2018-03-20T17:45:23.764Z,0.80
2018-03-20T17:47:51.424Z,0.70
2018-03-20T17:50:19.168Z,0.80
2018-03-20T17:52:46.849Z,0.80
2018-03-20T17:55:14.511Z,0.80
2018-03-20T17:57:42.172Z,0.80
2018-03-20T18:00:09.815Z,0.80
2018-03-20T18:02:37.493Z,0.70
2018-03-20T18:05:05.155Z,0.70
2018-03-20T18:07:32.878Z,0.60
2018-03-20T18:10:01.281Z,0.60
2018-03-20T18:12:28.958Z,0.60
2018-03-20T18:14:56.620Z,0.60
2018-03-20T18:17:24.342Z,0.50
2018-03-20T18:19:54.748Z,0.50
2018-03-20T18:22:22.360Z,0.40
2018-03-20T18:24:49.972Z,0.50
2018-03-20T18:27:17.584Z,0.40
2018-03-20T18:29:45.184Z,0.30
2018-03-20T18:32:12.797Z,0.30
2018-03-20T18:34:40.417Z,0.20
2018-03-20T18:37:08.814Z,0.10
2018-03-20T18:39:37.173Z,0.10
2018-03-20T18:42:04.793Z,0.00
2018-03-20T18:44:32.365Z,0.00
2018-03-20T18:46:59.964Z,0.00
2018-03-20T18:49:28.367Z,-0.10
2018-03-20T18:51:55.987Z,-0.10
2018-03-20T18:54:23.607Z,-0.20
2018-03-20T18:56:51.206Z,-0.30
2018-03-20T18:59:18.877Z,-0.30
2018-03-20T19:01:46.456Z,-0.40
2018-03-20T19:04:14.079Z,-0.40
2018-03-20T19:06:41.665Z,-0.30
2018-03-20T19:09:10.060Z,-0.30
2018-03-20T19:11:37.661Z,-0.30
2018-03-20T19:14:05.381Z,-0.30
2018-03-20T19:16:32.993Z,-0.40
2018-03-20T19:19:00.637Z,-0.40
2018-03-20T19:21:28.238Z,-0.50
2018-03-20T19:23:56.592Z,-0.50
2018-03-20T19:26:24.224Z,-0.50
2018-03-20T19:28:51.828Z,-0.60
2018-03-20T19:31:19.468Z,-0.60
2018-03-20T19:33:47.831Z,-0.60
2018-03-20T19:36:15.439Z,-0.60
2018-03-20T19:38:43.805Z,-0.60
2018-03-20T19:41:11.431Z,-0.60
2018-03-20T19:43:39.020Z,-0.70
2018-03-20T19:46:06.673Z,-0.70
2018-03-20T19:48:34.275Z,-0.70
2018-03-20T19:51:01.883Z,-0.70
2018-03-20T19:53:29.529Z,-0.80
2018-03-20T19:55:58.460Z,-0.70
2018-03-20T19:58:26.078Z,-0.80
2018-03-20T20:00:53.676Z,-0.80
2018-03-20T20:03:21.302Z,-0.90
2018-03-20T20:05:48.910Z,-0.90
2018-03-20T20:08:17.312Z,-0.90
2018-03-20T20:10:44.916Z,-0.90
2018-03-20T20:13:12.535Z,-0.90
2018-03-20T20:15:40.135Z,-0.90
2018-03-20T20:18:07.772Z,-1.00
2018-03-20T20:20:35.360Z,-1.10
2018-03-20T20:23:02.974Z,-1.10
2018-03-20T20:25:30.626Z,-1.10
2018-03-20T20:27:58.989Z,-1.10
2018-03-20T20:30:27.368Z,-1.20
2018-03-20T20:32:55.722Z,-1.30
2018-03-20T20:35:23.329Z,-1.30
2018-03-20T20:37:50.917Z,-1.30
2018-03-20T20:40:18.549Z,-1.40
2018-03-20T20:42:46.148Z,-1.40
2018-03-20T20:45:13.770Z,-1.40
2018-03-20T20:47:41.396Z,-1.40
2018-03-20T20:50:09.793Z,-1.50
2018-03-20T20:52:38.477Z,-1.50
2018-03-20T20:55:06.852Z,-1.50
2018-03-20T20:57:35.247Z,-1.50
2018-03-20T21:00:03.616Z,-1.60
2018-03-20T21:02:31.996Z,-1.60
2018-03-20T21:05:00.422Z,-1.60
2018-03-20T21:07:28.032Z,-1.60
2018-03-20T21:09:56.416Z,-1.70
2018-03-20T21:12:24.122Z,-1.70
2018-03-20T21:14:51.720Z,-1.60
2018-03-20T21:17:20.124Z,-1.70
2018-03-20T21:19:47.736Z,-1.70
2018-03-20T21:22:15.360Z,-1.70
2018-03-20T21:24:42.961Z,-1.70
2018-03-20T21:27:10.579Z,-1.70
2018-03-20T21:29:38.177Z,-1.70
2018-03-20T21:32:05.795Z,-1.70
2018-03-20T21:34:33.418Z,-1.80
2018-03-20T21:37:00.994Z,-1.80
2018-03-20T21:39:29.372Z,-1.90
2018-03-20T21:41:57.713Z,-2.00
2018-03-20T21:44:25.316Z,-2.00
2018-03-20T21:46:52.933Z,-1.90
2018-03-20T21:49:20.558Z,-2.00
2018-03-20T21:51:48.157Z,-2.00
2018-03-20T21:54:15.787Z,-2.00
2018-03-20T21:56:43.364Z,-2.00
2018-03-20T21:59:10.973Z,-2.00
2018-03-20T22:01:38.574Z,-2.10
2018-03-20T22:04:06.228Z,-2.00
2018-03-20T22:06:33.810Z,-2.00
2018-03-20T22:09:01.395Z,-2.00
2018-03-20T22:11:29.793Z,-2.10
2018-03-20T22:13:57.393Z,-2.10
2018-03-20T22:16:24.993Z,-2.10
2018-03-20T22:18:53.345Z,-2.10
2018-03-20T22:21:20.971Z,-2.10
2018-03-20T22:23:48.593Z,-2.20
2018-03-20T22:26:16.993Z,-2.30
2018-03-20T22:28:44.581Z,-2.30
2018-03-20T22:31:12.176Z,-2.30
2018-03-20T22:33:39.778Z,-2.30
2018-03-20T22:36:07.416Z,-2.30
2018-03-20T22:38:35.760Z,-2.40
2018-03-20T22:41:03.482Z,-2.40
2018-03-20T22:43:31.079Z,-2.30
2018-03-20T22:45:58.661Z,-2.30
2018-03-20T22:48:26.279Z,-2.40
2018-03-20T22:50:53.876Z,-2.40
2018-03-20T22:53:21.500Z,-2.40
2018-03-20T22:55:49.109Z,-2.50
2018-03-20T22:58:16.720Z,-2.50
2018-03-20T23:00:44.300Z,-2.60
2018-03-20T23:03:11.898Z,-2.60
2018-03-20T23:05:40.272Z,-2.70
2018-03-20T23:08:08.637Z,-2.90
2018-03-20T23:10:37.014Z,-2.90
2018-03-20T23:13:04.617Z,-3.00
2018-03-20T23:15:32.244Z,-3.10
2018-03-20T23:18:00.616Z,-3.20
2018-03-20T23:20:28.993Z,-3.20
2018-03-20T23:22:56.599Z,-3.20
2018-03-20T23:25:24.218Z,-3.20
2018-03-20T23:27:52.592Z,-3.30
2018-03-20T23:30:20.964Z,-3.40
2018-03-20T23:32:49.408Z,-3.40
2018-03-20T23:35:16.981Z,-3.40
2018-03-20T23:37:44.601Z,-3.40
2018-03-20T23:40:12.208Z,-3.30
2018-03-20T23:42:39.817Z,-3.40
2018-03-20T23:45:07.444Z,-3.40
2018-03-20T23:47:35.101Z,-3.40
2018-03-20T23:50:02.701Z,-3.50
2018-03-20T23:52:30.357Z,-3.50
2018-03-20T23:54:57.946Z,-3.50
2018-03-20T23:57:25.526Z,-3.60
2018-03-20T23:59:53.161Z,-3.60
